Time;durP1;ratioP1;P1;durP2;ratioP2;P2;SDS_P1;SDS_P2;PMS_P1;PMS_P2;Temp;Humidity;BMP_temperature;BMP_pressure;BME280_temperature;BME280_humidity;BME280_pressure;Samples;Min_cycle;Max_cycle;Signal;HPM_P1;HPM_P2
2023/06/11 00:01:17;;;;;;;5.80;3.95;;;24.40;65.20;;;;;;6201651;28;80471;-73
2023/06/11 00:04:24;;;;;;;7.00;4.57;;;24.40;65.20;;;;;;6182981;28;83204;-74
2023/06/11 00:07:25;;;;;;;6.05;4.60;;;24.30;65.10;;;;;;6201889;28;82514;-75
2023/06/11 00:10:26;;;;;;;5.88;4.35;;;24.40;65.20;;;;;;6202885;28;80822;-75
2023/06/11 00:13:26;;;;;;;4.15;3.75;;;24.30;65.00;;;;;;6204183;28;80329;-73
2023/06/11 00:16:32;;;;;;;6.72;4.53;;;24.40;65.10;;;;;;6205260;28;80527;-71
2023/06/11 00:19:33;;;;;;;6.47;4.32;;;24.40;65.10;;;;;;6204232;28;80461;-73
2023/06/11 00:22:34;;;;;;;6.00;4.65;;;24.40;65.10;;;;;;6204647;28;80871;-71
2023/06/11 00:25:35;;;;;;;4.75;4.00;;;24.30;64.90;;;;;;6204937;28;80320;-71
2023/06/11 00:28:35;;;;;;;5.00;4.30;;;24.40;65.00;;;;;;6203304;28;80713;-71
2023/06/11 00:31:36;;;;;;;4.65;4.10;;;24.30;65.00;;;;;;6205032;28;80540;-72
2023/06/11 00:34:36;;;;;;;5.00;4.13;;;24.30;65.00;;;;;;6201864;28;80118;-71
2023/06/11 00:37:37;;;;;;;10.60;4.65;;;24.30;65.00;;;;;;6201272;28;80357;-59
2023/06/11 00:40:37;;;;;;;4.85;4.20;;;24.40;65.00;;;;;;6200847;28;81340;-60
2023/06/11 00:43:38;;;;;;;5.93;4.80;;;24.30;65.10;;;;;;6184604;28;81020;-60
2023/06/11 00:46:41;;;;;;;5.07;4.50;;;24.30;65.20;;;;;;6202654;28;81027;-59
2023/06/11 00:49:42;;;;;;;6.20;4.78;;;24.30;65.10;;;;;;6202867;28;80559;-59
2023/06/11 00:52:42;;;;;;;5.70;4.20;;;24.30;65.20;;;;;;6199288;28;80365;-59
2023/06/11 00:55:43;;;;;;;4.85;4.25;;;24.30;65.20;;;;;;6201877;28;81162;-59
2023/06/11 00:58:45;;;;;;;7.35;4.60;;;24.30;65.20;;;;;;6191194;28;83678;-60
2023/06/11 01:01:45;;;;;;;6.00;4.13;;;24.30;65.20;;;;;;6174454;28;82190;-59
2023/06/11 01:04:48;;;;;;;7.57;4.93;;;24.20;65.20;;;;;;6179806;28;80547;-59
2023/06/11 01:07:52;;;;;;;5.20;4.70;;;24.30;65.20;;;;;;6191706;28;80438;-60
2023/06/11 01:11:01;;;;;;;5.82;4.40;;;24.30;65.20;;;;;;6181443;28;87684;-60
2023/06/11 01:14:05;;;;;;;4.78;4.28;;;24.30;65.10;;;;;;6197563;28;83588;-59
2023/06/11 01:17:06;;;;;;;5.53;4.32;;;24.30;65.10;;;;;;6200347;28;81001;-59
2023/06/11 01:20:10;;;;;;;7.65;4.93;;;24.30;65.10;;;;;;6179181;28;80550;-60
2023/06/11 01:23:11;;;;;;;6.28;4.47;;;24.30;65.10;;;;;;6179986;28;83763;-59
2023/06/11 01:26:12;;;;;;;5.18;4.07;;;24.30;65.10;;;;;;6199388;28;80389;-60
2023/06/11 01:29:13;;;;;;;4.80;4.30;;;24.30;64.90;;;;;;6197052;28;83155;-59
2023/06/11 01:32:14;;;;;;;6.80;4.88;;;24.30;65.00;;;;;;6180809;28;83204;-60
2023/06/11 01:35:15;;;;;;;6.60;4.70;;;24.30;65.00;;;;;;6181539;28;82119;-59
2023/06/11 01:38:21;;;;;;;6.15;5.28;;;24.30;64.90;;;;;;6190333;28;83120;-59
2023/06/11 01:41:25;;;;;;;6.30;5.13;;;24.30;65.00;;;;;;6179229;28;82844;-59
2023/06/11 01:44:26;;;;;;;6.15;5.20;;;24.20;65.00;;;;;;6195502;28;80787;-59
2023/06/11 01:47:27;;;;;;;8.82;5.32;;;24.30;65.00;;;;;;6174669;28;83567;-60
2023/06/11 01:50:30;;;;;;;5.03;4.55;;;24.30;65.00;;;;;;6179982;28;82677;-60
2023/06/11 01:53:30;;;;;;;5.35;4.72;;;24.30;65.00;;;;;;6197400;28;81799;-61
2023/06/11 01:56:32;;;;;;;5.60;4.95;;;24.30;65.00;;;;;;6203039;28;80571;-59
2023/06/11 01:59:33;;;;;;;5.50;5.00;;;24.30;64.90;;;;;;6188018;28;83199;-60
2023/06/11 02:02:34;;;;;;;6.32;5.55;;;24.30;64.90;;;;;;6189044;28;80426;-59
2023/06/11 02:05:35;;;;;;;5.82;5.03;;;24.30;64.90;;;;;;6177333;28;80394;-57
2023/06/11 02:08:35;;;;;;;5.40;4.88;;;24.30;64.80;;;;;;6173139;28;83147;-71
2023/06/11 02:11:36;;;;;;;5.95;4.82;;;24.30;64.70;;;;;;6179732;28;83073;-74
2023/06/11 02:14:36;;;;;;;8.60;4.60;;;24.30;64.80;;;;;;6192029;28;83734;-72
2023/06/11 02:17:37;;;;;;;6.75;5.28;;;24.30;64.80;;;;;;6174951;28;83356;-74
2023/06/11 02:20:37;;;;;;;5.13;4.63;;;24.20;64.70;;;;;;6186066;28;82192;-71
2023/06/11 02:23:38;;;;;;;5.43;4.78;;;24.30;64.70;;;;;;6176407;28;83140;-74
2023/06/11 02:26:39;;;;;;;5.30;4.63;;;24.30;64.70;;;;;;6186273;28;83152;-72
2023/06/11 02:29:39;;;;;;;5.80;5.13;;;24.20;64.70;;;;;;6194538;28;80642;-72
2023/06/11 02:32:40;;;;;;;5.90;5.22;;;24.30;64.80;;;;;;6188092;28;81805;-71
2023/06/11 02:35:41;;;;;;;5.65;5.05;;;24.30;64.80;;;;;;6179238;28;83539;-76
2023/06/11 02:38:42;;;;;;;5.80;5.30;;;24.20;64.80;;;;;;6190461;28;82290;-77
2023/06/11 02:41:42;;;;;;;5.78;5.22;;;24.30;64.70;;;;;;6179980;28;80769;-78
2023/06/11 02:44:43;;;;;;;6.75;5.30;;;24.30;64.70;;;;;;6202769;28;80811;-54
2023/06/11 02:47:44;;;;;;;5.63;5.03;;;24.30;64.80;;;;;;6200980;28;80755;-57
2023/06/11 02:50:44;;;;;;;5.82;5.22;;;24.20;64.80;;;;;;6183124;28;83956;-57
2023/06/11 02:53:45;;;;;;;7.28;5.35;;;24.20;64.80;;;;;;6183183;28;81851;-56
2023/06/11 02:56:45;;;;;;;5.78;5.20;;;24.20;64.80;;;;;;6172422;28;83192;-57
2023/06/11 02:59:46;;;;;;;6.68;6.00;;;24.20;64.80;;;;;;6195833;28;83863;-55
2023/06/11 03:02:46;;;;;;;6.55;5.35;;;24.30;64.80;;;;;;6181016;28;83252;-53
2023/06/11 03:05:51;;;;;;;6.35;5.25;;;24.20;64.80;;;;;;6175683;28;82906;-56
2023/06/11 03:08:53;;;;;;;7.85;5.72;;;24.20;64.80;;;;;;6175824;28;83318;-55
2023/06/11 03:11:53;;;;;;;9.70;6.28;;;24.20;64.70;;;;;;6161417;28;82634;-57
2023/06/11 03:14:55;;;;;;;6.82;5.53;;;24.30;64.70;;;;;;6175038;28;83259;-54
2023/06/11 03:17:55;;;;;;;6.55;5.03;;;24.20;64.80;;;;;;6189649;28;82610;-55
2023/06/11 03:20:57;;;;;;;6.32;5.68;;;24.20;64.70;;;;;;6167966;28;80509;-54
2023/06/11 03:23:57;;;;;;;5.78;4.93;;;24.20;64.80;;;;;;6179672;28;81113;-56
2023/06/11 03:26:58;;;;;;;8.38;5.28;;;24.20;64.60;;;;;;6169874;28;83061;-55
2023/06/11 03:29:59;;;;;;;5.70;5.18;;;24.20;64.80;;;;;;6176121;28;83748;-53
2023/06/11 03:33:00;;;;;;;5.88;5.28;;;24.20;64.70;;;;;;6182970;28;80630;-54
2023/06/11 03:36:01;;;;;;;6.90;5.32;;;24.20;64.70;;;;;;6169725;28;81562;-55
2023/06/11 03:39:02;;;;;;;6.13;5.53;;;24.20;64.70;;;;;;6164165;28;83199;-53
2023/06/11 03:42:03;;;;;;;7.95;6.03;;;24.20;64.80;;;;;;6184092;28;86240;-52
2023/06/11 03:45:05;;;;;;;8.07;5.63;;;24.20;64.80;;;;;;6164754;28;83163;-55
2023/06/11 03:48:07;;;;;;;6.78;5.45;;;24.20;64.80;;;;;;6186190;28;81278;-53
2023/06/11 03:51:09;;;;;;;6.55;5.28;;;24.20;64.70;;;;;;6163435;28;80470;-56
2023/06/11 03:54:09;;;;;;;6.68;5.13;;;24.20;64.70;;;;;;6165069;28;82875;-54
2023/06/11 03:57:12;;;;;;;6.15;5.55;;;24.20;64.80;;;;;;6185059;28;82305;-60
2023/06/11 04:00:12;;;;;;;7.65;5.18;;;24.20;64.70;;;;;;6202219;28;83509;-60
2023/06/11 04:03:16;;;;;;;6.07;5.45;;;24.20;64.80;;;;;;6201537;28;83582;-60
2023/06/11 04:06:17;;;;;;;6.22;5.47;;;24.20;64.80;;;;;;6189690;28;83400;-59
2023/06/11 04:09:18;;;;;;;7.00;5.30;;;24.20;64.80;;;;;;6184330;28;81745;-60
2023/06/11 04:12:19;;;;;;;6.30;5.45;;;24.20;64.60;;;;;;6165819;28;83232;-61
2023/06/11 04:15:20;;;;;;;6.18;5.20;;;24.20;64.70;;;;;;6168806;28;81301;-61
2023/06/11 04:18:21;;;;;;;6.85;5.50;;;24.20;64.70;;;;;;6146456;28;81513;-53
2023/06/11 04:21:25;;;;;;;6.32;5.07;;;24.20;64.60;;;;;;6169928;28;83288;-58
2023/06/11 04:24:25;;;;;;;9.40;5.65;;;24.20;64.80;;;;;;6159673;28;81698;-55
2023/06/11 04:27:26;;;;;;;5.38;4.82;;;24.30;64.70;;;;;;6175595;28;83398;-56
2023/06/11 04:30:27;;;;;;;7.53;5.88;;;24.30;64.60;;;;;;6181386;28;83457;-55
2023/06/11 04:33:37;;;;;;;6.72;5.20;;;24.30;64.60;;;;;;6166181;28;83318;-55
2023/06/11 04:36:41;;;;;;;8.23;5.30;;;24.30;64.60;;;;;;6154479;28;83338;-57
2023/06/11 04:39:43;;;;;;;5.88;5.15;;;24.30;64.60;;;;;;6165910;28;83097;-59
2023/06/11 04:42:46;;;;;;;6.15;5.22;;;24.30;64.50;;;;;;6157506;28;83246;-57
2023/06/11 04:45:49;;;;;;;7.30;5.72;;;24.30;64.50;;;;;;6155700;28;82772;-57
2023/06/11 04:48:51;;;;;;;6.88;5.40;;;24.30;64.50;;;;;;6153670;28;82491;-56
2023/06/11 04:51:52;;;;;;;7.00;5.80;;;24.30;64.60;;;;;;6170376;28;83258;-57
2023/06/11 04:54:55;;;;;;;7.75;5.75;;;24.30;64.30;;;;;;6170143;28;84150;-55
2023/06/11 04:57:56;;;;;;;10.35;6.43;;;24.20;64.20;;;;;;6177159;28;83503;-59
2023/06/11 05:00:58;;;;;;;7.47;6.32;;;24.20;64.20;;;;;;6176765;28;83552;-58
2023/06/11 05:03:59;;;;;;;11.45;5.82;;;24.10;64.20;;;;;;6176931;28;83492;-58
2023/06/11 05:07:00;;;;;;;9.43;8.15;;;24.10;64.00;;;;;;6175697;28;83846;-59
2023/06/11 05:10:02;;;;;;;11.48;8.48;;;24.00;62.40;;;;;;6175934;28;82724;-58
2023/06/11 05:13:04;;;;;;;12.48;8.15;;;23.90;61.90;;;;;;6172254;28;83552;-57
2023/06/11 05:16:05;;;;;;;11.63;8.52;;;23.80;62.00;;;;;;6191192;28;82357;-57
2023/06/11 05:19:06;;;;;;;9.90;8.35;;;23.80;62.00;;;;;;6170125;28;86362;-57
2023/06/11 05:22:09;;;;;;;10.02;8.23;;;23.70;62.10;;;;;;6173074;28;84695;-58
2023/06/11 05:25:14;;;;;;;14.00;7.85;;;23.70;62.30;;;;;;6174941;28;83771;-59
2023/06/11 05:28:15;;;;;;;12.15;8.30;;;23.60;62.50;;;;;;6191848;28;83243;-58
2023/06/11 05:31:17;;;;;;;9.40;7.90;;;23.60;62.50;;;;;;6174435;28;82941;-58
2023/06/11 05:34:23;;;;;;;16.85;8.32;;;23.60;62.50;;;;;;6176704;28;82713;-59
2023/06/11 05:37:24;;;;;;;10.43;7.47;;;23.50;62.80;;;;;;6170260;28;83647;-57
2023/06/11 05:40:24;;;;;;;10.60;7.80;;;23.60;62.70;;;;;;6174442;28;83989;-59
2023/06/11 05:43:25;;;;;;;10.25;6.97;;;23.50;62.70;;;;;;6172172;28;83360;-58
2023/06/11 05:46:28;;;;;;;10.45;8.00;;;23.40;62.80;;;;;;6176361;28;84701;-58
2023/06/11 05:49:30;;;;;;;8.60;7.20;;;23.30;62.70;;;;;;6174419;28;82714;-57
2023/06/11 05:52:31;;;;;;;8.32;6.72;;;23.30;62.70;;;;;;6163962;28;82889;-57
2023/06/11 05:55:32;;;;;;;10.50;7.30;;;23.30;62.80;;;;;;6188768;28;83144;-57
2023/06/11 05:58:33;;;;;;;10.10;7.85;;;23.20;62.70;;;;;;6174897;28;83194;-54
2023/06/11 06:01:35;;;;;;;14.98;7.50;;;23.10;62.50;;;;;;6169595;28;83591;-56
2023/06/11 06:04:37;;;;;;;10.82;6.80;;;23.20;63.10;;;;;;6179417;28;83309;-56
2023/06/11 06:07:38;;;;;;;16.60;6.75;;;23.30;62.80;;;;;;6171923;28;83113;-53
2023/06/11 06:10:38;;;;;;;10.05;7.00;;;23.40;62.50;;;;;;6181825;28;80467;-54
2023/06/11 06:13:39;;;;;;;11.05;6.32;;;23.50;62.40;;;;;;6168033;28;80609;-58
2023/06/11 06:16:40;;;;;;;18.33;7.07;;;23.50;62.20;;;;;;6160104;28;81897;-55
2023/06/11 06:19:45;;;;;;;12.88;6.60;;;23.60;62.50;;;;;;6163262;28;83290;-57
2023/06/11 06:22:45;;;;;;;12.75;7.13;;;23.60;62.40;;;;;;6164455;28;80686;-58
2023/06/11 06:25:47;;;;;;;8.95;6.57;;;23.70;62.60;;;;;;6176769;28;83471;-63
2023/06/11 06:28:48;;;;;;;12.23;6.18;;;23.70;62.80;;;;;;6175841;28;83513;-67
2023/06/11 06:31:49;;;;;;;13.35;6.88;;;23.70;62.50;;;;;;6176466;28;83667;-64
2023/06/11 06:34:50;;;;;;;12.60;7.82;;;23.70;63.50;;;;;;6177582;28;80491;-61
2023/06/11 06:37:50;;;;;;;67.47;26.02;;;23.80;63.20;;;;;;6172144;28;83206;-60
2023/06/11 06:40:51;;;;;;;68.05;29.60;;;23.90;64.60;;;;;;6167728;28;83994;-59
2023/06/11 06:43:51;;;;;;;39.03;23.08;;;23.90;64.20;;;;;;6168269;28;83089;-62
2023/06/11 06:46:53;;;;;;;23.95;14.45;;;23.90;62.50;;;;;;6171610;28;86172;-64
2023/06/11 06:49:54;;;;;;;18.23;11.88;;;23.70;61.10;;;;;;6152075;28;85756;-62
2023/06/11 06:52:55;;;;;;;16.63;10.30;;;23.70;60.60;;;;;;6152720;28;84977;-65
2023/06/11 06:55:58;;;;;;;14.15;8.15;;;23.70;60.30;;;;;;6172841;28;86467;-67
2023/06/11 06:58:59;;;;;;;16.20;8.43;;;23.60;59.90;;;;;;6157542;28;90699;-66
2023/06/11 07:02:01;;;;;;;10.35;7.40;;;23.50;60.20;;;;;;6175943;28;83527;-65
2023/06/11 07:05:03;;;;;;;12.60;7.03;;;23.60;60.50;;;;;;6174882;28;82383;-66
2023/06/11 07:08:04;;;;;;;12.05;7.72;;;23.70;60.40;;;;;;6176376;28;83874;-63
2023/06/11 07:11:04;;;;;;;9.73;7.05;;;23.70;60.70;;;;;;6171584;28;84619;-64
2023/06/11 07:14:15;;;;;;;13.55;7.57;;;23.80;60.70;;;;;;6174525;28;82350;-65
2023/06/11 07:17:18;;;;;;;9.30;6.53;;;23.90;60.90;;;;;;6183179;28;83583;-65
2023/06/11 07:20:19;;;;;;;11.23;6.45;;;23.90;60.90;;;;;;6186083;28;81677;-62
2023/06/11 07:23:20;;;;;;;8.30;6.55;;;23.90;61.30;;;;;;6180381;28;83550;-63
2023/06/11 07:26:20;;;;;;;10.68;7.18;;;24.00;61.80;;;;;;6177226;28;83217;-63
2023/06/11 07:29:21;;;;;;;8.90;6.82;;;24.00;61.60;;;;;;6182110;28;82856;-62
2023/06/11 07:32:22;;;;;;;7.78;6.10;;;24.00;61.40;;;;;;6182911;28;84014;-61
2023/06/11 07:35:23;;;;;;;12.05;6.75;;;24.00;61.50;;;;;;6178126;28;82529;-65
2023/06/11 07:38:24;;;;;;;8.23;6.32;;;24.00;61.80;;;;;;6179086;28;82355;-61
2023/06/11 07:41:25;;;;;;;13.57;6.55;;;24.00;61.60;;;;;;6175376;28;83373;-62
2023/06/11 07:44:25;;;;;;;14.00;6.47;;;24.00;61.60;;;;;;6182402;28;82171;-63
2023/06/11 07:47:26;;;;;;;15.75;6.68;;;24.00;61.60;;;;;;6189553;28;81218;-71
2023/06/11 07:50:27;;;;;;;8.57;6.07;;;24.10;62.30;;;;;;6183390;28;82928;-63
2023/06/11 07:53:28;;;;;;;11.27;5.88;;;24.10;62.20;;;;;;6200378;28;81919;-68
2023/06/11 07:56:29;;;;;;;8.10;6.05;;;24.10;61.90;;;;;;6173778;28;82306;-70
2023/06/11 07:59:30;;;;;;;10.50;6.25;;;24.10;60.80;;;;;;6187909;28;80244;-69
2023/06/11 08:02:30;;;;;;;9.13;6.05;;;24.00;60.40;;;;;;6183707;28;80449;-67
2023/06/11 08:05:31;;;;;;;12.20;7.13;;;24.00;60.00;;;;;;6193900;28;80365;-67
2023/06/11 08:08:31;;;;;;;10.63;7.00;;;24.00;59.80;;;;;;6199929;28;81487;-66
2023/06/11 08:11:32;;;;;;;7.40;6.38;;;24.00;59.70;;;;;;6201084;28;80785;-71
2023/06/11 08:14:32;;;;;;;9.95;7.85;;;23.90;59.90;;;;;;6193389;28;80626;-71
2023/06/11 08:17:33;;;;;;;11.50;7.53;;;23.90;59.40;;;;;;6178978;28;88072;-68
2023/06/11 08:20:33;;;;;;;9.80;6.80;;;23.90;59.70;;;;;;6187139;28;80310;-69
2023/06/11 08:23:34;;;;;;;10.07;6.47;;;23.90;59.70;;;;;;6202110;28;80430;-66
2023/06/11 08:26:35;;;;;;;9.35;6.53;;;23.90;60.20;;;;;;6193538;28;80950;-64
2023/06/11 08:29:35;;;;;;;7.60;5.45;;;23.90;60.00;;;;;;6186421;28;82450;-63
2023/06/11 08:32:36;;;;;;;22.60;6.15;;;23.90;60.10;;;;;;6184483;28;83581;-68
2023/06/11 08:35:36;;;;;;;9.00;5.68;;;23.90;60.40;;;;;;6185679;28;80681;-66
2023/06/11 08:38:37;;;;;;;8.57;5.53;;;23.90;59.70;;;;;;6199957;28;80910;-63
2023/06/11 08:41:37;;;;;;;11.10;5.57;;;24.00;61.10;;;;;;6199273;28;81475;-61
2023/06/11 08:44:38;;;;;;;9.27;4.85;;;23.90;59.90;;;;;;6203227;28;81396;-59
2023/06/11 08:47:41;;;;;;;6.55;5.03;;;23.90;59.50;;;;;;6203072;28;80596;-59
2023/06/11 08:50:42;;;;;;;5.53;4.80;;;23.80;58.90;;;;;;6201183;28;80384;-62
2023/06/11 08:53:42;;;;;;;8.63;5.38;;;23.80;59.60;;;;;;6180053;28;82796;-59
2023/06/11 08:56:43;;;;;;;6.43;4.95;;;23.90;59.20;;;;;;6202782;28;81528;-60
2023/06/11 08:59:43;;;;;;;5.40;4.90;;;24.00;59.00;;;;;;6202972;28;84045;-60
2023/06/11 09:02:44;;;;;;;7.13;4.55;;;24.00;58.10;;;;;;6197218;28;81426;-60
2023/06/11 09:05:46;;;;;;;10.98;4.18;;;24.00;58.50;;;;;;6199611;28;81611;-58
2023/06/11 09:08:46;;;;;;;8.02;4.45;;;24.00;58.40;;;;;;6196821;28;81043;-60
2023/06/11 09:11:47;;;;;;;7.90;3.97;;;24.10;58.60;;;;;;6190880;28;80787;-58
2023/06/11 09:14:47;;;;;;;8.80;5.13;;;24.00;58.50;;;;;;6190416;28;80208;-58
2023/06/11 09:17:48;;;;;;;5.20;4.47;;;24.10;58.40;;;;;;6198282;28;86042;-59
2023/06/11 09:20:48;;;;;;;10.68;5.82;;;24.20;58.40;;;;;;6199392;28;80097;-59
2023/06/11 09:23:49;;;;;;;10.07;4.75;;;24.20;58.40;;;;;;6199188;28;80582;-59
2023/06/11 09:26:50;;;;;;;13.43;4.75;;;24.20;58.80;;;;;;6191765;28;81624;-57
2023/06/11 09:29:50;;;;;;;13.60;5.43;;;24.20;58.90;;;;;;6196823;28;82090;-59
2023/06/11 09:32:51;;;;;;;7.80;4.72;;;24.20;59.10;;;;;;6181253;28;82519;-61
2023/06/11 09:35:52;;;;;;;12.10;4.22;;;24.30;59.90;;;;;;6182995;28;80512;-61
2023/06/11 09:38:52;;;;;;;8.20;3.92;;;24.30;59.40;;;;;;6189841;28;80947;-60
2023/06/11 09:41:53;;;;;;;12.20;4.63;;;24.30;59.50;;;;;;6191325;28;86644;-58
2023/06/11 09:44:53;;;;;;;9.18;4.25;;;24.30;59.50;;;;;;6183926;28;82374;-58
2023/06/11 09:47:54;;;;;;;8.80;4.22;;;24.40;59.60;;;;;;6187439;28;80595;-58
2023/06/11 09:50:54;;;;;;;5.60;4.07;;;24.40;59.60;;;;;;6197593;28;82068;-59
2023/06/11 09:53:55;;;;;;;19.17;4.70;;;24.40;59.80;;;;;;6194374;28;80483;-59
2023/06/11 09:56:56;;;;;;;10.00;4.43;;;24.40;59.80;;;;;;6194257;28;80773;-59
2023/06/11 09:59:56;;;;;;;7.95;4.22;;;24.40;59.90;;;;;;6193002;28;81084;-59
2023/06/11 10:02:57;;;;;;;9.98;4.70;;;24.30;59.40;;;;;;6193609;28;80668;-61
2023/06/11 10:05:57;;;;;;;7.55;4.22;;;24.30;60.00;;;;;;6184141;28;81053;-61
2023/06/11 10:08:58;;;;;;;6.68;4.38;;;24.30;59.20;;;;;;6190752;28;80451;-59
2023/06/11 10:11:59;;;;;;;6.82;5.18;;;24.30;58.90;;;;;;6200869;28;80522;-59
2023/06/11 10:14:59;;;;;;;7.30;3.97;;;24.20;59.00;;;;;;6188857;28;80302;-60
2023/06/11 10:18:00;;;;;;;7.38;3.90;;;24.30;58.00;;;;;;6202615;28;80385;-60
2023/06/11 10:21:00;;;;;;;6.47;3.75;;;24.20;56.90;;;;;;6193591;28;82085;-60
2023/06/11 10:24:01;;;;;;;7.60;3.97;;;24.20;56.70;;;;;;6193772;28;80560;-60
2023/06/11 10:27:01;;;;;;;8.23;3.90;;;24.30;56.50;;;;;;6193670;28;81649;-61
2023/06/11 10:30:02;;;;;;;10.05;3.95;;;24.40;56.40;;;;;;6183489;28;80987;-61
2023/06/11 10:33:03;;;;;;;7.90;3.97;;;24.30;56.10;;;;;;6201116;28;80422;-64
2023/06/11 10:36:03;;;;;;;8.50;4.22;;;24.30;55.90;;;;;;6199089;28;80662;-61
2023/06/11 10:39:04;;;;;;;6.05;4.00;;;24.30;55.80;;;;;;6195394;28;81108;-63
2023/06/11 10:42:05;;;;;;;9.38;3.80;;;24.30;56.20;;;;;;6191467;28;81616;-64
2023/06/11 10:45:06;;;;;;;7.68;3.72;;;24.30;55.90;;;;;;6192216;28;80527;-63
2023/06/11 10:48:07;;;;;;;7.40;3.92;;;24.40;55.80;;;;;;6184103;28;82147;-67
2023/06/11 10:51:08;;;;;;;4.78;3.70;;;24.40;55.70;;;;;;6196387;28;81089;-65
2023/06/11 10:54:08;;;;;;;5.60;3.95;;;24.40;56.10;;;;;;6197345;28;80381;-65
2023/06/11 10:57:10;;;;;;;10.40;3.92;;;24.40;55.90;;;;;;6180351;28;80442;-64
2023/06/11 11:00:11;;;;;;;3.83;3.22;;;24.40;55.80;;;;;;6197870;28;81842;-64
2023/06/11 11:03:12;;;;;;;6.45;3.65;;;24.40;55.60;;;;;;6189517;28;81313;-63
2023/06/11 11:06:13;;;;;;;5.45;3.88;;;24.50;55.40;;;;;;6187351;28;80414;-62
2023/06/11 11:09:14;;;;;;;9.52;3.70;;;24.50;55.60;;;;;;6183634;28;80697;-69
2023/06/11 11:12:14;;;;;;;6.60;3.70;;;24.40;55.30;;;;;;6180796;28;80839;-69
2023/06/11 11:15:15;;;;;;;8.90;3.67;;;24.30;54.70;;;;;;6183745;28;80657;-71
2023/06/11 11:18:16;;;;;;;8.60;3.55;;;24.30;54.70;;;;;;6179577;28;80697;-71
2023/06/11 11:21:16;;;;;;;10.15;3.63;;;24.30;54.80;;;;;;6184617;28;80324;-71
2023/06/11 11:24:17;;;;;;;7.47;3.08;;;24.40;55.00;;;;;;6193655;28;80608;-67
2023/06/11 11:27:17;;;;;;;7.55;3.50;;;24.40;54.50;;;;;;6188929;28;80849;-65
2023/06/11 11:30:18;;;;;;;3.35;2.78;;;24.40;54.20;;;;;;6184155;28;82926;-64
2023/06/11 11:33:18;;;;;;;3.38;3.00;;;24.30;53.70;;;;;;6190536;28;80438;-63
2023/06/11 11:36:19;;;;;;;3.40;2.47;;;24.30;53.60;;;;;;6199370;28;80290;-67
2023/06/11 11:39:20;;;;;;;8.05;3.25;;;24.30;53.20;;;;;;6185014;28;80516;-65
2023/06/11 11:42:20;;;;;;;4.97;2.80;;;24.30;53.80;;;;;;6191881;28;83433;-60
2023/06/11 11:45:21;;;;;;;5.80;3.50;;;24.40;53.60;;;;;;6179979;28;82290;-61
2023/06/11 11:48:21;;;;;;;6.75;3.53;;;24.40;53.00;;;;;;6194579;28;80591;-62
2023/06/11 11:51:22;;;;;;;7.40;3.75;;;24.40;53.10;;;;;;6196462;28;83394;-61
2023/06/11 11:54:22;;;;;;;13.73;4.18;;;24.30;53.10;;;;;;6182771;28;80885;-62
2023/06/11 11:57:25;;;;;;;8.52;3.75;;;24.30;52.90;;;;;;6185894;28;80505;-61
2023/06/11 12:00:26;;;;;;;6.80;3.60;;;24.40;53.40;;;;;;6193881;28;80473;-59
2023/06/11 12:03:26;;;;;;;4.50;3.50;;;24.30;53.30;;;;;;6188959;28;80374;-61
2023/06/11 12:06:27;;;;;;;9.10;3.47;;;24.30;52.40;;;;;;6178361;28;80683;-62
2023/06/11 12:09:27;;;;;;;4.00;3.22;;;24.30;53.00;;;;;;6195236;28;81592;-61
2023/06/11 12:12:28;;;;;;;3.75;3.28;;;24.40;52.80;;;;;;6181480;28;82599;-60
2023/06/11 12:15:29;;;;;;;6.13;3.25;;;24.30;52.90;;;;;;6194226;28;80404;-63
2023/06/11 12:18:29;;;;;;;5.40;3.53;;;24.40;52.80;;;;;;6204929;28;81006;-61
2023/06/11 12:21:30;;;;;;;4.22;3.10;;;24.30;53.10;;;;;;6205983;28;80431;-60
2023/06/11 12:24:32;;;;;;;8.85;3.33;;;24.40;52.90;;;;;;6198993;28;82044;-60
2023/06/11 12:27:32;;;;;;;4.15;3.03;;;24.40;52.80;;;;;;6196829;28;81219;-61
2023/06/11 12:30:33;;;;;;;4.78;3.80;;;24.40;52.80;;;;;;6196213;28;80792;-61
2023/06/11 12:33:34;;;;;;;7.57;3.60;;;24.40;52.90;;;;;;6194816;28;87242;-62
2023/06/11 12:36:35;;;;;;;4.28;3.15;;;24.40;52.90;;;;;;6199671;28;80469;-61
2023/06/11 12:39:36;;;;;;;4.90;3.42;;;24.30;52.60;;;;;;6202645;28;80611;-63
2023/06/11 12:42:37;;;;;;;6.03;3.42;;;24.40;52.80;;;;;;6191949;28;81048;-63
2023/06/11 12:45:37;;;;;;;5.60;3.47;;;24.40;52.90;;;;;;6189672;28;80211;-66
2023/06/11 12:48:38;;;;;;;5.03;3.85;;;24.40;53.00;;;;;;6201591;28;81457;-64
2023/06/11 12:51:42;;;;;;;6.85;3.80;;;24.40;53.20;;;;;;6185434;28;81116;-61
2023/06/11 12:54:42;;;;;;;14.57;4.07;;;24.40;54.50;;;;;;6200456;28;80651;-60
2023/06/11 12:57:43;;;;;;;6.63;3.30;;;24.50;53.30;;;;;;6196891;28;83348;-61
2023/06/11 13:00:43;;;;;;;5.65;3.42;;;24.40;52.90;;;;;;6200568;28;80956;-58
2023/06/11 13:03:44;;;;;;;8.45;4.07;;;24.40;52.70;;;;;;6187500;28;82503;-61
2023/06/11 13:06:45;;;;;;;7.68;3.90;;;24.40;52.60;;;;;;6176270;28;82265;-61
2023/06/11 13:09:46;;;;;;;4.53;3.13;;;24.50;52.70;;;;;;6180189;28;81623;-59
2023/06/11 13:12:47;;;;;;;6.38;3.33;;;24.60;53.50;;;;;;6182331;28;81643;-60
2023/06/11 13:15:47;;;;;;;6.35;3.42;;;24.50;51.80;;;;;;6178039;28;80514;-60
2023/06/11 13:18:48;;;;;;;4.32;3.20;;;24.40;50.50;;;;;;6179536;28;84171;-61
2023/06/11 13:21:48;;;;;;;8.38;3.75;;;24.40;50.20;;;;;;6178730;28;82270;-60
2023/06/11 13:24:49;;;;;;;7.40;4.03;;;24.40;50.40;;;;;;6182865;28;81908;-60
2023/06/11 13:27:49;;;;;;;10.65;3.88;;;24.40;50.40;;;;;;6177824;28;82122;-60
2023/06/11 13:30:52;;;;;;;9.02;3.78;;;24.30;50.60;;;;;;6175628;28;81392;-59
2023/06/11 13:33:53;;;;;;;4.70;3.53;;;24.30;50.80;;;;;;6184177;28;81730;-60
2023/06/11 13:36:56;;;;;;;3.80;3.40;;;24.20;51.10;;;;;;6172335;28;81691;-60
2023/06/11 13:39:56;;;;;;;8.90;3.40;;;24.20;51.20;;;;;;6180981;28;81763;-62
2023/06/11 13:42:57;;;;;;;4.00;3.40;;;24.10;51.20;;;;;;6159602;28;82222;-62
2023/06/11 13:45:58;;;;;;;10.35;3.80;;;24.10;50.90;;;;;;6179468;28;80894;-65
2023/06/11 13:48:58;;;;;;;7.07;3.45;;;24.10;51.10;;;;;;6192111;28;85046;-66
2023/06/11 13:52:00;;;;;;;9.07;3.75;;;24.10;50.40;;;;;;6193824;28;82719;-63
2023/06/11 13:55:01;;;;;;;12.23;4.00;;;24.10;51.00;;;;;;6179499;28;80455;-71
2023/06/11 13:58:02;;;;;;;5.90;3.83;;;24.20;51.70;;;;;;6190811;28;80277;-70
2023/06/11 14:01:03;;;;;;;8.55;3.95;;;24.10;51.40;;;;;;6198516;28;81238;-67
2023/06/11 14:04:04;;;;;;;6.05;3.53;;;24.10;50.80;;;;;;6202292;28;82969;-67
2023/06/11 14:07:04;;;;;;;9.13;3.70;;;24.10;50.40;;;;;;6197057;28;80555;-65
2023/06/11 14:10:05;;;;;;;6.65;4.25;;;24.20;51.10;;;;;;6190771;28;80157;-65
2023/06/11 14:24:37;;;;;;;100.57;61.95;;;24.20;50.60;;;;;;6233551;27;76745;-65
2023/06/11 14:27:38;;;;;;;58.63;38.47;;;24.30;49.20;;;;;;6192829;28;82695;-64
2023/06/11 14:30:38;;;;;;;14.70;9.50;;;24.30;49.90;;;;;;6190617;28;83670;-69
2023/06/11 14:33:39;;;;;;;7.82;5.07;;;24.30;50.20;;;;;;6194407;28;81810;-66
2023/06/11 14:36:40;;;;;;;9.65;4.03;;;24.30;49.60;;;;;;6196597;28;80599;-66
2023/06/11 14:39:40;;;;;;;8.02;3.80;;;24.10;48.70;;;;;;6189513;28;80434;-66
2023/06/11 14:42:41;;;;;;;10.68;3.70;;;24.00;49.10;;;;;;6193054;28;82844;-63
2023/06/11 14:45:41;;;;;;;4.65;3.28;;;24.00;49.50;;;;;;6191397;28;82555;-65
2023/06/11 14:48:42;;;;;;;4.80;3.65;;;24.00;50.20;;;;;;6192228;28;81720;-66
2023/06/11 14:51:42;;;;;;;8.93;3.20;;;23.90;50.40;;;;;;6195981;28;80549;-65
2023/06/11 14:54:43;;;;;;;9.75;3.42;;;23.90;49.80;;;;;;6186630;28;86497;-62
2023/06/11 14:57:43;;;;;;;6.10;3.50;;;24.00;49.50;;;;;;6196812;28;80571;-63
2023/06/11 15:00:44;;;;;;;4.07;3.35;;;24.00;49.20;;;;;;6194998;28;80902;-60
2023/06/11 15:03:44;;;;;;;8.25;3.50;;;24.10;49.30;;;;;;6194625;28;80944;-59
2023/06/11 15:06:45;;;;;;;10.10;3.53;;;24.10;49.80;;;;;;6192346;28;81634;-61
2023/06/11 15:09:46;;;;;;;5.00;3.30;;;24.10;50.30;;;;;;6181920;28;81864;-61
2023/06/11 15:12:46;;;;;;;10.20;3.47;;;24.00;50.00;;;;;;6196466;28;80976;-59
2023/06/11 15:15:47;;;;;;;6.10;3.55;;;24.00;49.70;;;;;;6192472;28;82138;-60
2023/06/11 15:18:47;;;;;;;10.27;3.70;;;24.00;49.90;;;;;;6193446;28;83796;-65
2023/06/11 15:21:48;;;;;;;6.30;3.33;;;24.00;50.40;;;;;;6193301;28;80731;-67
2023/06/11 15:24:48;;;;;;;6.35;3.28;;;24.10;49.50;;;;;;6172610;28;80920;-67
2023/06/11 15:27:52;;;;;;;12.05;3.40;;;24.00;49.30;;;;;;6179494;28;80815;-68
2023/06/11 15:30:52;;;;;;;6.68;3.38;;;24.10;49.90;;;;;;6181535;28;81784;-66
2023/06/11 15:33:53;;;;;;;7.53;4.00;;;24.10;50.70;;;;;;6162956;28;81692;-67
2023/06/11 15:36:53;;;;;;;4.93;3.38;;;24.10;51.00;;;;;;6180388;28;80737;-65
2023/06/11 15:39:54;;;;;;;5.35;3.00;;;24.20;51.50;;;;;;6177745;28;81480;-66
2023/06/11 15:42:54;;;;;;;5.68;3.53;;;24.10;51.40;;;;;;6181089;28;80306;-64
2023/06/11 15:45:55;;;;;;;3.92;2.95;;;24.10;50.40;;;;;;6179634;28;80096;-66
2023/06/11 15:48:56;;;;;;;6.32;3.28;;;24.10;50.10;;;;;;6181780;28;80932;-66